sensor_id;sensor_type;location;lat;lon;timestamp;pressure;altitude;pressure_sealevel;temperature;humidity
12536;BME280;6334;48.696;2.114;2022-10-31T00:00:17;100232.34;;;15.37;100.00
12536;BME280;6334;48.696;2.114;2022-10-31T00:02:47;100231.82;;;14.87;100.00
12536;BME280;6334;48.696;2.114;2022-10-31T00:05:18;100228.81;;;14.92;100.00
12536;BME280;6334;48.696;2.114;2022-10-31T00:07:51;100222.72;;;15.35;100.00
12536;BME280;6334;48.696;2.114;2022-10-31T00:10:19;100228.18;;;14.97;100.00
12536;BME280;6334;48.696;2.114;2022-10-31T00:12:49;100229.43;;;14.88;100.00
12536;BME280;6334;48.696;2.114;2022-10-31T00:15:20;100222.52;;;15.25;100.00
12536;BME280;6334;48.696;2.114;2022-10-31T00:17:50;100218.38;;;15.25;100.00
12536;BME280;6334;48.696;2.114;2022-10-31T00:20:21;100223.70;;;15.20;100.00
12536;BME280;6334;48.696;2.114;2022-10-31T00:22:51;100228.59;;;15.11;100.00
12536;BME280;6334;48.696;2.114;2022-10-31T00:25:22;100226.02;;;15.15;100.00
12536;BME280;6334;48.696;2.114;2022-10-31T00:27:52;100229.81;;;15.10;100.00
12536;BME280;6334;48.696;2.114;2022-10-31T00:30:23;100232.98;;;15.32;100.00
12536;BME280;6334;48.696;2.114;2022-10-31T00:32:53;100227.55;;;15.15;100.00
12536;BME280;6334;48.696;2.114;2022-10-31T00:35:23;100228.77;;;15.03;100.00
12536;BME280;6334;48.696;2.114;2022-10-31T00:37:54;100223.31;;;15.07;100.00
12536;BME280;6334;48.696;2.114;2022-10-31T00:40:24;100227.07;;;15.16;100.00
12536;BME280;6334;48.696;2.114;2022-10-31T00:42:55;100231.98;;;15.11;100.00
12536;BME280;6334;48.696;2.114;2022-10-31T00:45:25;100234.21;;;14.76;100.00
12536;BME280;6334;48.696;2.114;2022-10-31T00:47:56;100238.95;;;14.82;100.00
12536;BME280;6334;48.696;2.114;2022-10-31T00:50:27;100237.69;;;14.82;100.00
12536;BME280;6334;48.696;2.114;2022-10-31T00:52:58;100231.73;;;14.93;100.00
12536;BME280;6334;48.696;2.114;2022-10-31T00:55:28;100222.09;;;15.19;100.00
12536;BME280;6334;48.696;2.114;2022-10-31T00:57:59;100213.50;;;15.07;100.00
12536;BME280;6334;48.696;2.114;2022-10-31T01:00:29;100206.77;;;15.12;100.00
12536;BME280;6334;48.696;2.114;2022-10-31T01:03:00;100198.25;;;15.21;100.00
12536;BME280;6334;48.696;2.114;2022-10-31T01:05:30;100199.52;;;15.34;100.00
12536;BME280;6334;48.696;2.114;2022-10-31T01:08:01;100194.03;;;15.23;100.00
12536;BME280;6334;48.696;2.114;2022-10-31T01:10:31;100189.11;;;15.21;100.00
12536;BME280;6334;48.696;2.114;2022-10-31T01:13:01;100185.05;;;15.43;100.00
12536;BME280;6334;48.696;2.114;2022-10-31T01:15:32;100183.27;;;15.23;100.00
12536;BME280;6334;48.696;2.114;2022-10-31T01:18:02;100183.61;;;15.33;100.00
12536;BME280;6334;48.696;2.114;2022-10-31T01:20:33;100177.53;;;14.75;100.00
12536;BME280;6334;48.696;2.114;2022-10-31T01:23:03;100175.81;;;15.13;100.00
12536;BME280;6334;48.696;2.114;2022-10-31T01:25:34;100176.91;;;15.20;100.00
12536;BME280;6334;48.696;2.114;2022-10-31T01:28:04;100181.77;;;15.27;100.00
12536;BME280;6334;48.696;2.114;2022-10-31T01:30:35;100179.73;;;15.26;100.00
12536;BME280;6334;48.696;2.114;2022-10-31T01:33:05;100168.28;;;15.51;100.00
12536;BME280;6334;48.696;2.114;2022-10-31T01:35:36;100165.79;;;15.40;100.00
12536;BME280;6334;48.696;2.114;2022-10-31T01:38:06;100159.97;;;15.39;100.00
12536;BME280;6334;48.696;2.114;2022-10-31T01:40:37;100160.20;;;15.43;100.00
12536;BME280;6334;48.696;2.114;2022-10-31T01:43:10;100158.84;;;15.43;100.00
12536;BME280;6334;48.696;2.114;2022-10-31T01:45:37;100165.02;;;15.34;100.00
12536;BME280;6334;48.696;2.114;2022-10-31T01:48:11;100166.45;;;15.08;100.00
12536;BME280;6334;48.696;2.114;2022-10-31T01:50:41;100170.05;;;15.31;100.00
12536;BME280;6334;48.696;2.114;2022-10-31T01:53:13;100174.67;;;14.98;100.00
12536;BME280;6334;48.696;2.114;2022-10-31T01:55:44;100172.91;;;14.96;100.00
12536;BME280;6334;48.696;2.114;2022-10-31T01:58:15;100174.41;;;15.30;100.00
12536;BME280;6334;48.696;2.114;2022-10-31T02:00:45;100166.50;;;15.39;100.00
12536;BME280;6334;48.696;2.114;2022-10-31T02:03:15;100169.00;;;15.39;100.00
12536;BME280;6334;48.696;2.114;2022-10-31T02:05:45;100154.27;;;15.47;100.00
12536;BME280;6334;48.696;2.114;2022-10-31T02:08:19;100155.52;;;15.54;100.00
12536;BME280;6334;48.696;2.114;2022-10-31T02:10:49;100157.73;;;15.48;100.00
12536;BME280;6334;48.696;2.114;2022-10-31T02:13:19;100147.70;;;15.51;100.00
12536;BME280;6334;48.696;2.114;2022-10-31T02:15:53;100146.27;;;14.98;100.00
12536;BME280;6334;48.696;2.114;2022-10-31T02:18:23;100149.00;;;15.06;100.00
12536;BME280;6334;48.696;2.114;2022-10-31T02:32:27;100123.14;;;15.38;100.00
12536;BME280;6334;48.696;2.114;2022-10-31T02:35:03;100122.22;;;15.31;100.00
12536;BME280;6334;48.696;2.114;2022-10-31T02:45:41;100116.66;;;15.49;100.00
12536;BME280;6334;48.696;2.114;2022-10-31T02:48:14;100115.12;;;15.40;100.00
12536;BME280;6334;48.696;2.114;2022-10-31T02:50:43;100111.55;;;15.06;100.00
12536;BME280;6334;48.696;2.114;2022-10-31T02:53:15;100114.48;;;15.30;100.00
12536;BME280;6334;48.696;2.114;2022-10-31T02:55:44;100109.38;;;15.38;100.00
12536;BME280;6334;48.696;2.114;2022-10-31T02:58:13;100108.21;;;15.50;100.00
12536;BME280;6334;48.696;2.114;2022-10-31T03:06:24;100108.63;;;15.43;100.00
12536;BME280;6334;48.696;2.114;2022-10-31T03:11:44;100095.50;;;15.31;100.00
12536;BME280;6334;48.696;2.114;2022-10-31T03:14:17;100091.28;;;15.39;100.00
12536;BME280;6334;48.696;2.114;2022-10-31T03:16:48;100090.73;;;15.39;100.00
12536;BME280;6334;48.696;2.114;2022-10-31T03:19:28;100085.77;;;15.05;100.00
12536;BME280;6334;48.696;2.114;2022-10-31T03:22:06;100086.52;;;15.34;100.00
12536;BME280;6334;48.696;2.114;2022-10-31T03:24:36;100078.24;;;15.22;100.00
12536;BME280;6334;48.696;2.114;2022-10-31T03:27:05;100079.67;;;15.31;100.00
12536;BME280;6334;48.696;2.114;2022-10-31T03:29:35;100074.31;;;15.10;100.00
12536;BME280;6334;48.696;2.114;2022-10-31T03:32:09;100065.98;;;15.23;100.00
12536;BME280;6334;48.696;2.114;2022-10-31T03:34:39;100070.76;;;15.39;100.00
12536;BME280;6334;48.696;2.114;2022-10-31T03:37:09;100069.63;;;15.19;100.00
12536;BME280;6334;48.696;2.114;2022-10-31T03:39:40;100061.50;;;15.18;100.00
12536;BME280;6334;48.696;2.114;2022-10-31T03:42:11;100062.56;;;15.33;100.00
12536;BME280;6334;48.696;2.114;2022-10-31T03:44:44;100061.10;;;15.05;100.00
12536;BME280;6334;48.696;2.114;2022-10-31T03:47:11;100054.66;;;15.20;100.00
12536;BME280;6334;48.696;2.114;2022-10-31T03:49:41;100053.36;;;15.36;100.00
12536;BME280;6334;48.696;2.114;2022-10-31T03:52:49;100044.33;;;15.18;100.00
12536;BME280;6334;48.696;2.114;2022-10-31T03:55:31;100048.44;;;15.41;100.00
12536;BME280;6334;48.696;2.114;2022-10-31T03:58:03;100045.57;;;14.92;100.00
12536;BME280;6334;48.696;2.114;2022-10-31T04:00:32;100040.53;;;15.31;100.00
12536;BME280;6334;48.696;2.114;2022-10-31T04:03:12;100039.34;;;15.16;100.00
12536;BME280;6334;48.696;2.114;2022-10-31T04:05:39;100039.31;;;15.47;100.00
12536;BME280;6334;48.696;2.114;2022-10-31T04:08:10;100042.62;;;15.14;100.00
12536;BME280;6334;48.696;2.114;2022-10-31T04:10:40;100043.97;;;15.01;100.00
12536;BME280;6334;48.696;2.114;2022-10-31T04:13:11;100045.60;;;15.30;100.00
12536;BME280;6334;48.696;2.114;2022-10-31T04:15:42;100044.63;;;15.09;100.00
12536;BME280;6334;48.696;2.114;2022-10-31T04:18:13;100044.63;;;15.39;100.00
12536;BME280;6334;48.696;2.114;2022-10-31T04:20:46;100043.95;;;15.45;100.00
12536;BME280;6334;48.696;2.114;2022-10-31T04:23:25;100045.34;;;15.04;100.00
12536;BME280;6334;48.696;2.114;2022-10-31T04:25:55;100039.95;;;15.06;100.00
12536;BME280;6334;48.696;2.114;2022-10-31T04:28:26;100041.38;;;15.01;100.00
12536;BME280;6334;48.696;2.114;2022-10-31T04:30:56;100038.41;;;15.03;100.00
12536;BME280;6334;48.696;2.114;2022-10-31T04:33:27;100041.05;;;14.84;100.00
12536;BME280;6334;48.696;2.114;2022-10-31T04:35:57;100039.67;;;15.20;100.00
12536;BME280;6334;48.696;2.114;2022-10-31T04:38:28;100029.99;;;14.92;100.00
12536;BME280;6334;48.696;2.114;2022-10-31T04:41:00;100027.84;;;14.92;100.00
12536;BME280;6334;48.696;2.114;2022-10-31T04:43:32;100017.66;;;14.94;100.00
12536;BME280;6334;48.696;2.114;2022-10-31T04:46:03;100014.93;;;15.11;100.00
12536;BME280;6334;48.696;2.114;2022-10-31T04:48:33;100012.46;;;14.79;100.00
12536;BME280;6334;48.696;2.114;2022-10-31T04:51:03;100012.05;;;14.83;100.00
12536;BME280;6334;48.696;2.114;2022-10-31T04:53:34;100007.98;;;14.71;100.00
12536;BME280;6334;48.696;2.114;2022-10-31T04:56:04;100008.41;;;15.16;100.00
12536;BME280;6334;48.696;2.114;2022-10-31T04:58:35;100001.77;;;15.05;100.00
12536;BME280;6334;48.696;2.114;2022-10-31T05:01:05;99996.76;;;14.92;100.00
12536;BME280;6334;48.696;2.114;2022-10-31T05:03:36;99987.05;;;14.95;100.00
12536;BME280;6334;48.696;2.114;2022-10-31T05:06:07;99994.55;;;14.75;100.00
12536;BME280;6334;48.696;2.114;2022-10-31T05:08:37;99987.42;;;15.01;100.00
12536;BME280;6334;48.696;2.114;2022-10-31T05:11:07;99986.80;;;14.68;100.00
12536;BME280;6334;48.696;2.114;2022-10-31T05:13:38;99981.67;;;14.86;100.00
12536;BME280;6334;48.696;2.114;2022-10-31T05:16:10;99976.67;;;14.90;100.00
12536;BME280;6334;48.696;2.114;2022-10-31T05:18:40;99971.55;;;14.93;100.00
12536;BME280;6334;48.696;2.114;2022-10-31T05:21:11;99963.82;;;14.88;100.00
12536;BME280;6334;48.696;2.114;2022-10-31T05:23:41;99962.12;;;15.04;100.00
12536;BME280;6334;48.696;2.114;2022-10-31T05:26:12;99970.75;;;14.91;100.00
12536;BME280;6334;48.696;2.114;2022-10-31T05:28:42;99976.22;;;14.81;100.00
12536;BME280;6334;48.696;2.114;2022-10-31T05:31:13;99983.89;;;14.66;100.00
12536;BME280;6334;48.696;2.114;2022-10-31T05:33:43;99984.91;;;14.74;100.00
12536;BME280;6334;48.696;2.114;2022-10-31T05:36:13;99985.27;;;14.87;100.00
12536;BME280;6334;48.696;2.114;2022-10-31T05:38:44;99980.48;;;14.66;100.00
12536;BME280;6334;48.696;2.114;2022-10-31T05:41:14;99981.06;;;14.89;100.00
12536;BME280;6334;48.696;2.114;2022-10-31T05:43:45;99983.07;;;14.78;100.00
12536;BME280;6334;48.696;2.114;2022-10-31T05:46:15;99979.13;;;14.76;100.00
12536;BME280;6334;48.696;2.114;2022-10-31T05:48:46;99977.97;;;14.99;100.00
12536;BME280;6334;48.696;2.114;2022-10-31T05:51:18;99975.26;;;15.20;100.00
12536;BME280;6334;48.696;2.114;2022-10-31T05:53:48;99974.53;;;15.31;100.00
12536;BME280;6334;48.696;2.114;2022-10-31T05:56:19;99970.42;;;15.06;100.00
12536;BME280;6334;48.696;2.114;2022-10-31T05:58:49;99965.81;;;15.14;100.00
12536;BME280;6334;48.696;2.114;2022-10-31T06:01:19;99964.54;;;14.58;100.00
12536;BME280;6334;48.696;2.114;2022-10-31T06:03:50;99955.78;;;14.87;100.00
12536;BME280;6334;48.696;2.114;2022-10-31T06:06:20;99944.38;;;14.85;100.00
12536;BME280;6334;48.696;2.114;2022-10-31T06:08:51;99951.78;;;14.52;100.00
12536;BME280;6334;48.696;2.114;2022-10-31T06:11:21;99943.41;;;14.61;100.00
12536;BME280;6334;48.696;2.114;2022-10-31T06:13:52;99942.15;;;14.84;100.00
12536;BME280;6334;48.696;2.114;2022-10-31T06:16:22;99943.55;;;15.06;100.00
12536;BME280;6334;48.696;2.114;2022-10-31T06:18:53;99942.14;;;14.78;100.00
12536;BME280;6334;48.696;2.114;2022-10-31T06:21:23;99937.91;;;15.01;100.00
12536;BME280;6334;48.696;2.114;2022-10-31T06:23:54;99939.72;;;15.01;100.00
12536;BME280;6334;48.696;2.114;2022-10-31T06:26:24;99935.30;;;14.88;100.00
12536;BME280;6334;48.696;2.114;2022-10-31T06:28:55;99933.05;;;14.92;100.00
12536;BME280;6334;48.696;2.114;2022-10-31T06:31:25;99927.48;;;14.73;100.00
12536;BME280;6334;48.696;2.114;2022-10-31T06:33:56;99924.95;;;14.93;100.00
12536;BME280;6334;48.696;2.114;2022-10-31T06:36:26;99927.46;;;14.88;100.00
12536;BME280;6334;48.696;2.114;2022-10-31T06:38:57;99929.80;;;14.66;100.00
12536;BME280;6334;48.696;2.114;2022-10-31T06:41:27;99929.11;;;14.77;100.00
12536;BME280;6334;48.696;2.114;2022-10-31T06:43:58;99926.25;;;14.78;100.00
12536;BME280;6334;48.696;2.114;2022-10-31T06:46:28;99921.42;;;15.11;100.00
12536;BME280;6334;48.696;2.114;2022-10-31T06:48:59;99918.80;;;14.56;100.00
12536;BME280;6334;48.696;2.114;2022-10-31T06:51:29;99916.52;;;14.81;100.00
12536;BME280;6334;48.696;2.114;2022-10-31T06:53:59;99912.42;;;14.86;100.00
12536;BME280;6334;48.696;2.114;2022-10-31T06:56:30;99912.77;;;14.63;100.00
12536;BME280;6334;48.696;2.114;2022-10-31T06:59:00;99914.53;;;14.75;100.00
12536;BME280;6334;48.696;2.114;2022-10-31T07:01:31;99918.31;;;14.73;100.00
12536;BME280;6334;48.696;2.114;2022-10-31T07:04:01;99921.48;;;14.70;100.00
12536;BME280;6334;48.696;2.114;2022-10-31T07:06:32;99920.12;;;14.74;100.00
12536;BME280;6334;48.696;2.114;2022-10-31T07:09:02;99918.12;;;14.54;100.00
12536;BME280;6334;48.696;2.114;2022-10-31T07:11:33;99911.84;;;14.79;100.00
12536;BME280;6334;48.696;2.114;2022-10-31T07:14:03;99912.58;;;14.45;100.00
12536;BME280;6334;48.696;2.114;2022-10-31T07:16:34;99904.66;;;14.67;100.00
12536;BME280;6334;48.696;2.114;2022-10-31T07:19:04;99900.00;;;14.93;100.00
12536;BME280;6334;48.696;2.114;2022-10-31T07:21:35;99897.75;;;15.05;100.00
12536;BME280;6334;48.696;2.114;2022-10-31T07:24:05;99902.23;;;14.92;100.00
12536;BME280;6334;48.696;2.114;2022-10-31T07:26:36;99895.49;;;14.72;100.00
12536;BME280;6334;48.696;2.114;2022-10-31T07:29:06;99894.94;;;14.60;100.00
12536;BME280;6334;48.696;2.114;2022-10-31T07:31:37;99890.85;;;14.82;100.00
12536;BME280;6334;48.696;2.114;2022-10-31T07:34:07;99895.60;;;15.01;100.00
12536;BME280;6334;48.696;2.114;2022-10-31T07:36:37;99897.31;;;14.49;100.00
12536;BME280;6334;48.696;2.114;2022-10-31T07:39:08;99898.95;;;14.60;100.00
12536;BME280;6334;48.696;2.114;2022-10-31T07:41:38;99892.70;;;14.73;100.00
12536;BME280;6334;48.696;2.114;2022-10-31T07:44:09;99887.47;;;14.53;100.00
12536;BME280;6334;48.696;2.114;2022-10-31T07:46:39;99888.36;;;14.54;100.00
12536;BME280;6334;48.696;2.114;2022-10-31T07:49:10;99885.51;;;15.13;100.00
12536;BME280;6334;48.696;2.114;2022-10-31T07:51:40;99892.98;;;15.07;100.00
12536;BME280;6334;48.696;2.114;2022-10-31T07:54:11;99892.53;;;15.13;100.00
12536;BME280;6334;48.696;2.114;2022-10-31T07:56:41;99897.92;;;14.91;100.00
12536;BME280;6334;48.696;2.114;2022-10-31T07:59:12;99898.69;;;14.99;100.00
12536;BME280;6334;48.696;2.114;2022-10-31T08:01:41;99899.45;;;14.87;100.00
12536;BME280;6334;48.696;2.114;2022-10-31T08:04:12;99894.00;;;14.78;100.00
12536;BME280;6334;48.696;2.114;2022-10-31T08:06:42;99904.02;;;15.12;100.00
12536;BME280;6334;48.696;2.114;2022-10-31T08:09:14;99897.45;;;15.02;100.00
12536;BME280;6334;48.696;2.114;2022-10-31T08:11:45;99894.14;;;14.58;100.00
12536;BME280;6334;48.696;2.114;2022-10-31T08:14:15;99892.71;;;14.78;100.00
12536;BME280;6334;48.696;2.114;2022-10-31T08:16:48;99889.15;;;14.58;100.00
12536;BME280;6334;48.696;2.114;2022-10-31T08:19:17;99881.72;;;15.03;100.00
12536;BME280;6334;48.696;2.114;2022-10-31T08:21:51;99883.19;;;14.79;100.00
12536;BME280;6334;48.696;2.114;2022-10-31T08:24:22;99873.09;;;15.03;100.00
12536;BME280;6334;48.696;2.114;2022-10-31T08:26:52;99872.68;;;14.94;100.00
12536;BME280;6334;48.696;2.114;2022-10-31T08:29:23;99869.35;;;14.94;100.00
12536;BME280;6334;48.696;2.114;2022-10-31T08:31:53;99872.76;;;14.80;100.00
12536;BME280;6334;48.696;2.114;2022-10-31T08:34:23;99876.80;;;14.86;100.00
12536;BME280;6334;48.696;2.114;2022-10-31T08:36:54;99867.38;;;15.24;100.00
12536;BME280;6334;48.696;2.114;2022-10-31T08:39:24;99863.21;;;15.14;100.00
12536;BME280;6334;48.696;2.114;2022-10-31T08:41:56;99861.59;;;15.27;100.00
12536;BME280;6334;48.696;2.114;2022-10-31T08:44:26;99849.27;;;15.11;100.00
12536;BME280;6334;48.696;2.114;2022-10-31T08:46:57;99839.09;;;15.38;100.00
12536;BME280;6334;48.696;2.114;2022-10-31T08:49:27;99838.84;;;15.32;100.00
12536;BME280;6334;48.696;2.114;2022-10-31T08:51:58;99836.75;;;15.32;100.00
12536;BME280;6334;48.696;2.114;2022-10-31T08:54:27;99826.66;;;15.60;100.00
12536;BME280;6334;48.696;2.114;2022-10-31T08:56:58;99814.93;;;15.67;100.00
12536;BME280;6334;48.696;2.114;2022-10-31T08:59:28;99808.88;;;15.56;100.00
12536;BME280;6334;48.696;2.114;2022-10-31T09:02:00;99809.63;;;15.83;100.00
12536;BME280;6334;48.696;2.114;2022-10-31T09:04:31;99811.02;;;15.96;100.00
12536;BME280;6334;48.696;2.114;2022-10-31T09:07:01;99808.94;;;15.71;100.00
12536;BME280;6334;48.696;2.114;2022-10-31T09:09:31;99803.41;;;16.07;100.00
12536;BME280;6334;48.696;2.114;2022-10-31T09:12:02;99806.75;;;15.88;100.00
12536;BME280;6334;48.696;2.114;2022-10-31T09:14:32;99796.33;;;16.04;100.00
12536;BME280;6334;48.696;2.114;2022-10-31T09:17:11;99789.87;;;16.08;100.00
12536;BME280;6334;48.696;2.114;2022-10-31T09:19:33;99786.78;;;16.09;100.00
12536;BME280;6334;48.696;2.114;2022-10-31T09:22:03;99783.70;;;16.08;100.00
12536;BME280;6334;48.696;2.114;2022-10-31T09:24:34;99775.07;;;16.09;100.00
12536;BME280;6334;48.696;2.114;2022-10-31T09:27:04;99771.84;;;16.21;100.00
12536;BME280;6334;48.696;2.114;2022-10-31T09:29:35;99771.81;;;16.28;100.00
12536;BME280;6334;48.696;2.114;2022-10-31T09:32:05;99764.33;;;16.11;100.00
12536;BME280;6334;48.696;2.114;2022-10-31T09:34:35;99753.66;;;16.38;100.00
12536;BME280;6334;48.696;2.114;2022-10-31T09:37:07;99752.70;;;15.99;100.00
12536;BME280;6334;48.696;2.114;2022-10-31T09:39:44;99749.41;;;16.37;100.00
12536;BME280;6334;48.696;2.114;2022-10-31T09:42:27;99748.55;;;16.52;100.00
12536;BME280;6334;48.696;2.114;2022-10-31T09:45:23;99746.27;;;16.41;100.00
12536;BME280;6334;48.696;2.114;2022-10-31T09:50:21;99732.75;;;16.22;100.00
12536;BME280;6334;48.696;2.114;2022-10-31T09:53:03;99726.17;;;16.38;100.00
12536;BME280;6334;48.696;2.114;2022-10-31T09:55:30;99716.80;;;16.42;100.00
12536;BME280;6334;48.696;2.114;2022-10-31T09:57:53;99704.98;;;16.72;100.00
12536;BME280;6334;48.696;2.114;2022-10-31T10:00:24;99698.05;;;16.89;100.00
12536;BME280;6334;48.696;2.114;2022-10-31T10:02:59;99695.76;;;16.63;100.00
12536;BME280;6334;48.696;2.114;2022-10-31T10:05:33;99687.78;;;16.99;100.00
12536;BME280;6334;48.696;2.114;2022-10-31T10:10:51;99677.39;;;16.86;100.00
12536;BME280;6334;48.696;2.114;2022-10-31T10:16:26;99664.74;;;17.13;100.00
12536;BME280;6334;48.696;2.114;2022-10-31T10:19:05;99660.20;;;17.42;100.00
12536;BME280;6334;48.696;2.114;2022-10-31T10:27:05;99665.13;;;17.67;100.00
12536;BME280;6334;48.696;2.114;2022-10-31T10:29:37;99667.14;;;17.73;100.00
12536;BME280;6334;48.696;2.114;2022-10-31T10:32:05;99661.24;;;17.71;100.00
12536;BME280;6334;48.696;2.114;2022-10-31T10:34:37;99671.23;;;17.64;100.00
12536;BME280;6334;48.696;2.114;2022-10-31T10:37:13;99667.50;;;17.47;100.00
12536;BME280;6334;48.696;2.114;2022-10-31T10:39:39;99654.87;;;17.48;100.00
12536;BME280;6334;48.696;2.114;2022-10-31T10:42:13;99643.73;;;17.51;100.00
12536;BME280;6334;48.696;2.114;2022-10-31T10:45:13;99632.71;;;17.36;100.00
12536;BME280;6334;48.696;2.114;2022-10-31T10:47:57;99631.88;;;17.60;100.00
12536;BME280;6334;48.696;2.114;2022-10-31T10:50:27;99632.75;;;17.73;100.00
12536;BME280;6334;48.696;2.114;2022-10-31T10:55:50;99627.56;;;17.85;100.00
12536;BME280;6334;48.696;2.114;2022-10-31T10:58:17;99621.28;;;17.99;100.00
12536;BME280;6334;48.696;2.114;2022-10-31T11:00:46;99617.97;;;17.87;100.00
12536;BME280;6334;48.696;2.114;2022-10-31T11:03:18;99613.11;;;17.69;100.00
12536;BME280;6334;48.696;2.114;2022-10-31T11:05:53;99604.52;;;17.98;100.00
12536;BME280;6334;48.696;2.114;2022-10-31T11:08:31;99598.88;;;18.01;100.00
12536;BME280;6334;48.696;2.114;2022-10-31T11:11:26;99594.84;;;18.06;100.00
12536;BME280;6334;48.696;2.114;2022-10-31T11:14:00;99595.41;;;17.96;100.00
12536;BME280;6334;48.696;2.114;2022-10-31T11:16:36;99594.46;;;18.00;100.00
12536;BME280;6334;48.696;2.114;2022-10-31T11:19:20;99582.61;;;18.10;100.00
12536;BME280;6334;48.696;2.114;2022-10-31T11:21:50;99573.80;;;18.08;100.00
12536;BME280;6334;48.696;2.114;2022-10-31T11:24:20;99573.19;;;18.09;100.00
12536;BME280;6334;48.696;2.114;2022-10-31T11:26:50;99573.67;;;18.16;100.00
12536;BME280;6334;48.696;2.114;2022-10-31T11:29:26;99569.34;;;18.24;100.00
12536;BME280;6334;48.696;2.114;2022-10-31T11:31:58;99568.86;;;18.26;100.00
12536;BME280;6334;48.696;2.114;2022-10-31T11:34:34;99567.59;;;18.26;100.00
12536;BME280;6334;48.696;2.114;2022-10-31T11:37:15;99570.20;;;18.21;100.00
12536;BME280;6334;48.696;2.114;2022-10-31T11:39:45;99576.94;;;18.13;100.00
12536;BME280;6334;48.696;2.114;2022-10-31T11:42:20;99572.67;;;18.07;100.00
12536;BME280;6334;48.696;2.114;2022-10-31T11:44:49;99569.09;;;18.29;100.00
12536;BME280;6334;48.696;2.114;2022-10-31T11:47:21;99564.33;;;18.17;100.00
12536;BME280;6334;48.696;2.114;2022-10-31T11:49:48;99565.31;;;18.26;100.00
12536;BME280;6334;48.696;2.114;2022-10-31T11:52:28;99561.38;;;18.42;100.00
12536;BME280;6334;48.696;2.114;2022-10-31T11:55:02;99550.80;;;18.23;100.00
12536;BME280;6334;48.696;2.114;2022-10-31T11:57:41;99550.58;;;18.25;100.00
12536;BME280;6334;48.696;2.114;2022-10-31T12:00:04;99542.86;;;18.37;100.00
12536;BME280;6334;48.696;2.114;2022-10-31T12:02:33;99536.20;;;18.45;100.00
12536;BME280;6334;48.696;2.114;2022-10-31T12:05:19;99530.11;;;18.49;100.00
12536;BME280;6334;48.696;2.114;2022-10-31T12:07:49;99532.61;;;18.39;100.00
12536;BME280;6334;48.696;2.114;2022-10-31T12:10:19;99526.84;;;18.52;100.00
12536;BME280;6334;48.696;2.114;2022-10-31T12:12:58;99527.97;;;18.36;100.00
12536;BME280;6334;48.696;2.114;2022-10-31T12:15:33;99512.25;;;18.43;100.00
12536;BME280;6334;48.696;2.114;2022-10-31T12:24:07;99500.33;;;18.69;100.00
12536;BME280;6334;48.696;2.114;2022-10-31T12:28:50;99492.20;;;18.73;100.00
12536;BME280;6334;48.696;2.114;2022-10-31T12:33:53;99475.30;;;18.71;100.00
12536;BME280;6334;48.696;2.114;2022-10-31T12:42:14;99460.98;;;18.77;100.00
12536;BME280;6334;48.696;2.114;2022-10-31T12:44:56;99465.55;;;18.62;100.00
12536;BME280;6334;48.696;2.114;2022-10-31T12:47:46;99470.88;;;18.47;100.00
12536;BME280;6334;48.696;2.114;2022-10-31T12:55:51;99456.20;;;18.55;100.00
12536;BME280;6334;48.696;2.114;2022-10-31T12:58:24;99449.25;;;18.78;100.00
12536;BME280;6334;48.696;2.114;2022-10-31T13:00:54;99449.25;;;18.88;100.00
12536;BME280;6334;48.696;2.114;2022-10-31T13:03:26;99439.85;;;18.94;100.00
12536;BME280;6334;48.696;2.114;2022-10-31T13:05:58;99432.25;;;18.88;100.00
12536;BME280;6334;48.696;2.114;2022-10-31T13:08:30;99426.51;;;18.84;100.00
12536;BME280;6334;48.696;2.114;2022-10-31T13:11:12;99423.98;;;18.79;100.00
12536;BME280;6334;48.696;2.114;2022-10-31T13:14:07;99422.44;;;18.87;100.00
12536;BME280;6334;48.696;2.114;2022-10-31T13:16:37;99415.30;;;18.81;100.00
12536;BME280;6334;48.696;2.114;2022-10-31T13:19:22;99412.86;;;18.87;100.00
12536;BME280;6334;48.696;2.114;2022-10-31T13:27:28;99394.38;;;18.79;100.00
12536;BME280;6334;48.696;2.114;2022-10-31T13:30:22;99393.36;;;18.82;100.00
12536;BME280;6334;48.696;2.114;2022-10-31T13:32:42;99386.04;;;18.86;100.00
12536;BME280;6334;48.696;2.114;2022-10-31T13:35:16;99370.97;;;19.03;100.00
12536;BME280;6334;48.696;2.114;2022-10-31T13:37:48;99366.14;;;19.06;100.00
12536;BME280;6334;48.696;2.114;2022-10-31T13:40:35;99362.83;;;18.94;100.00
12536;BME280;6334;48.696;2.114;2022-10-31T13:43:11;99355.30;;;19.06;100.00
12536;BME280;6334;48.696;2.114;2022-10-31T13:45:47;99346.80;;;19.14;100.00
12536;BME280;6334;48.696;2.114;2022-10-31T13:48:19;99342.08;;;18.92;100.00
12536;BME280;6334;48.696;2.114;2022-10-31T13:50:58;99333.02;;;19.04;100.00
12536;BME280;6334;48.696;2.114;2022-10-31T13:53:45;99333.88;;;19.03;100.00
12536;BME280;6334;48.696;2.114;2022-10-31T13:56:33;99334.83;;;18.98;100.00
12536;BME280;6334;48.696;2.114;2022-10-31T13:59:11;99327.58;;;19.17;100.00
12536;BME280;6334;48.696;2.114;2022-10-31T14:01:34;99326.72;;;19.24;100.00
12536;BME280;6334;48.696;2.114;2022-10-31T14:04:12;99320.05;;;19.30;100.00
12536;BME280;6334;48.696;2.114;2022-10-31T14:06:50;99311.62;;;19.28;100.00
12536;BME280;6334;48.696;2.114;2022-10-31T14:09:30;99305.89;;;19.17;100.00
12536;BME280;6334;48.696;2.114;2022-10-31T14:11:49;99308.00;;;19.31;100.00
12536;BME280;6334;48.696;2.114;2022-10-31T14:14:19;99304.83;;;19.38;100.00
12536;BME280;6334;48.696;2.114;2022-10-31T14:16:55;99306.51;;;19.38;100.00
12536;BME280;6334;48.696;2.114;2022-10-31T14:19:21;99308.45;;;19.40;100.00
12536;BME280;6334;48.696;2.114;2022-10-31T14:22:01;99310.16;;;19.59;100.00
12536;BME280;6334;48.696;2.114;2022-10-31T14:24:36;99302.72;;;19.33;100.00
12536;BME280;6334;48.696;2.114;2022-10-31T14:27:42;99210.52;;;18.81;100.00
12536;BME280;6334;48.696;2.114;2022-10-31T14:30:16;99307.70;;;19.28;100.00
12536;BME280;6334;48.696;2.114;2022-10-31T14:32:48;99303.81;;;19.39;100.00
12536;BME280;6334;48.696;2.114;2022-10-31T14:35:15;99305.23;;;19.21;100.00